sensor_id;sensor_type;location;lat;lon;timestamp;P1;durP1;ratioP1;P2;durP2;ratioP2
52586;SDS011;38480;52.724;6.436;2024-02-15T00:01:33;47.27;;;21.03;;
52586;SDS011;38480;52.724;6.436;2024-02-15T00:03:59;43.17;;;20.40;;
52586;SDS011;38480;52.724;6.436;2024-02-15T00:06:25;39.30;;;19.03;;
52586;SDS011;38480;52.724;6.436;2024-02-15T00:08:51;48.50;;;19.00;;
52586;SDS011;38480;52.724;6.436;2024-02-15T00:11:17;42.93;;;18.57;;
52586;SDS011;38480;52.724;6.436;2024-02-15T00:13:43;38.23;;;18.63;;
52586;SDS011;38480;52.724;6.436;2024-02-15T00:16:13;41.73;;;18.57;;
52586;SDS011;38480;52.724;6.436;2024-02-15T00:18:42;43.90;;;19.58;;
52586;SDS011;38480;52.724;6.436;2024-02-15T00:21:09;44.50;;;20.20;;
52586;SDS011;38480;52.724;6.436;2024-02-15T00:23:36;43.13;;;20.60;;
52586;SDS011;38480;52.724;6.436;2024-02-15T00:26:02;45.57;;;20.53;;
52586;SDS011;38480;52.724;6.436;2024-02-15T00:28:28;44.03;;;21.60;;
52586;SDS011;38480;52.724;6.436;2024-02-15T00:30:54;51.13;;;23.63;;
52586;SDS011;38480;52.724;6.436;2024-02-15T00:33:20;47.40;;;22.00;;
52586;SDS011;38480;52.724;6.436;2024-02-15T00:35:47;53.90;;;23.33;;
52586;SDS011;38480;52.724;6.436;2024-02-15T00:38:16;59.47;;;24.63;;
52586;SDS011;38480;52.724;6.436;2024-02-15T00:40:44;63.30;;;25.50;;
52586;SDS011;38480;52.724;6.436;2024-02-15T00:43:10;61.53;;;26.87;;
52586;SDS011;38480;52.724;6.436;2024-02-15T00:45:36;70.70;;;25.47;;
52586;SDS011;38480;52.724;6.436;2024-02-15T00:48:02;68.77;;;26.67;;
52586;SDS011;38480;52.724;6.436;2024-02-15T00:50:30;73.20;;;27.13;;
52586;SDS011;38480;52.724;6.436;2024-02-15T00:52:56;90.10;;;29.57;;
52586;SDS011;38480;52.724;6.436;2024-02-15T00:55:22;81.13;;;29.77;;
52586;SDS011;38480;52.724;6.436;2024-02-15T00:57:48;86.40;;;28.93;;
52586;SDS011;38480;52.724;6.436;2024-02-15T01:00:14;77.73;;;29.57;;
52586;SDS011;38480;52.724;6.436;2024-02-15T01:02:40;83.10;;;30.50;;
52586;SDS011;38480;52.724;6.436;2024-02-15T01:05:06;119.33;;;33.70;;
52586;SDS011;38480;52.724;6.436;2024-02-15T01:07:34;102.87;;;32.30;;
52586;SDS011;38480;52.724;6.436;2024-02-15T01:10:01;91.27;;;30.80;;
52586;SDS011;38480;52.724;6.436;2024-02-15T01:12:31;77.27;;;30.43;;
52586;SDS011;38480;52.724;6.436;2024-02-15T01:14:58;83.87;;;30.50;;
52586;SDS011;38480;52.724;6.436;2024-02-15T01:17:24;95.10;;;31.43;;
52586;SDS011;38480;52.724;6.436;2024-02-15T01:19:50;72.77;;;28.70;;
52586;SDS011;38480;52.724;6.436;2024-02-15T01:22:18;94.90;;;30.27;;
52586;SDS011;38480;52.724;6.436;2024-02-15T01:24:45;81.53;;;27.33;;
52586;SDS011;38480;52.724;6.436;2024-02-15T01:27:11;92.67;;;29.10;;
52586;SDS011;38480;52.724;6.436;2024-02-15T01:29:37;70.73;;;26.30;;
52586;SDS011;38480;52.724;6.436;2024-02-15T01:32:03;68.60;;;26.80;;
52586;SDS011;38480;52.724;6.436;2024-02-15T01:34:30;47.57;;;22.13;;
52586;SDS011;38480;52.724;6.436;2024-02-15T01:36:56;70.27;;;25.20;;
52586;SDS011;38480;52.724;6.436;2024-02-15T01:39:22;72.97;;;24.67;;
52586;SDS011;38480;52.724;6.436;2024-02-15T01:41:48;66.60;;;22.93;;
52586;SDS011;38480;52.724;6.436;2024-02-15T01:44:20;65.97;;;23.10;;
52586;SDS011;38480;52.724;6.436;2024-02-15T01:46:49;75.80;;;24.43;;
52586;SDS011;38480;52.724;6.436;2024-02-15T01:49:17;71.43;;;24.27;;
52586;SDS011;38480;52.724;6.436;2024-02-15T01:51:43;74.87;;;26.40;;
52586;SDS011;38480;52.724;6.436;2024-02-15T01:54:10;72.53;;;25.50;;
52586;SDS011;38480;52.724;6.436;2024-02-15T01:56:42;85.13;;;26.50;;
52586;SDS011;38480;52.724;6.436;2024-02-15T01:59:08;62.20;;;23.70;;
52586;SDS011;38480;52.724;6.436;2024-02-15T02:01:34;72.10;;;25.73;;
52586;SDS011;38480;52.724;6.436;2024-02-15T02:04:00;66.20;;;26.03;;
52586;SDS011;38480;52.724;6.436;2024-02-15T02:06:30;68.53;;;24.90;;
52586;SDS011;38480;52.724;6.436;2024-02-15T02:08:56;57.37;;;20.03;;
52586;SDS011;38480;52.724;6.436;2024-02-15T02:11:23;49.93;;;20.53;;
52586;SDS011;38480;52.724;6.436;2024-02-15T02:13:50;76.30;;;22.23;;
52586;SDS011;38480;52.724;6.436;2024-02-15T02:16:26;57.57;;;19.23;;
52586;SDS011;38480;52.724;6.436;2024-02-15T02:18:54;65.20;;;21.37;;
52586;SDS011;38480;52.724;6.436;2024-02-15T02:21:20;58.07;;;20.17;;
52586;SDS011;38480;52.724;6.436;2024-02-15T02:23:47;53.53;;;19.87;;
52586;SDS011;38480;52.724;6.436;2024-02-15T02:26:16;48.70;;;19.27;;
52586;SDS011;38480;52.724;6.436;2024-02-15T02:28:42;67.93;;;24.00;;
52586;SDS011;38480;52.724;6.436;2024-02-15T02:31:08;81.50;;;23.97;;
52586;SDS011;38480;52.724;6.436;2024-02-15T02:33:36;63.27;;;22.43;;
52586;SDS011;38480;52.724;6.436;2024-02-15T02:36:02;66.00;;;24.17;;
52586;SDS011;38480;52.724;6.436;2024-02-15T02:38:34;58.10;;;22.80;;
52586;SDS011;38480;52.724;6.436;2024-02-15T02:41:03;61.20;;;22.73;;
52586;SDS011;38480;52.724;6.436;2024-02-15T02:43:29;55.33;;;22.43;;
52586;SDS011;38480;52.724;6.436;2024-02-15T02:45:55;69.17;;;26.03;;
52586;SDS011;38480;52.724;6.436;2024-02-15T02:48:23;53.87;;;22.73;;
52586;SDS011;38480;52.724;6.436;2024-02-15T02:50:49;50.87;;;22.57;;
52586;SDS011;38480;52.724;6.436;2024-02-15T02:53:16;78.03;;;25.63;;
52586;SDS011;38480;52.724;6.436;2024-02-15T02:55:42;63.07;;;24.73;;
52586;SDS011;38480;52.724;6.436;2024-02-15T02:58:09;57.03;;;23.03;;
52586;SDS011;38480;52.724;6.436;2024-02-15T03:00:35;51.00;;;22.37;;
52586;SDS011;38480;52.724;6.436;2024-02-15T03:03:02;63.40;;;24.87;;
52586;SDS011;38480;52.724;6.436;2024-02-15T03:05:30;62.90;;;24.93;;
52586;SDS011;38480;52.724;6.436;2024-02-15T03:07:56;60.77;;;25.93;;
52586;SDS011;38480;52.724;6.436;2024-02-15T03:10:22;63.77;;;24.87;;
52586;SDS011;38480;52.724;6.436;2024-02-15T03:12:49;67.20;;;26.83;;
52586;SDS011;38480;52.724;6.436;2024-02-15T03:15:15;66.10;;;26.97;;
52586;SDS011;38480;52.724;6.436;2024-02-15T03:17:44;69.27;;;27.27;;
52586;SDS011;38480;52.724;6.436;2024-02-15T03:20:10;61.13;;;25.97;;
52586;SDS011;38480;52.724;6.436;2024-02-15T03:22:45;68.63;;;27.47;;
52586;SDS011;38480;52.724;6.436;2024-02-15T03:25:11;55.53;;;25.07;;
52586;SDS011;38480;52.724;6.436;2024-02-15T03:27:39;64.53;;;29.00;;
52586;SDS011;38480;52.724;6.436;2024-02-15T03:30:05;63.57;;;28.33;;
52586;SDS011;38480;52.724;6.436;2024-02-15T03:32:31;75.40;;;29.23;;
52586;SDS011;38480;52.724;6.436;2024-02-15T03:34:57;76.07;;;29.27;;
52586;SDS011;38480;52.724;6.436;2024-02-15T03:37:26;81.53;;;30.77;;
52586;SDS011;38480;52.724;6.436;2024-02-15T03:39:52;73.43;;;29.27;;
52586;SDS011;38480;52.724;6.436;2024-02-15T03:42:18;86.87;;;30.93;;
52586;SDS011;38480;52.724;6.436;2024-02-15T03:44:44;61.73;;;28.47;;
52586;SDS011;38480;52.724;6.436;2024-02-15T03:47:10;67.73;;;28.70;;
52586;SDS011;38480;52.724;6.436;2024-02-15T03:49:38;79.47;;;30.13;;
52586;SDS011;38480;52.724;6.436;2024-02-15T03:52:06;78.53;;;31.40;;
52586;SDS011;38480;52.724;6.436;2024-02-15T03:54:33;88.73;;;31.60;;
52586;SDS011;38480;52.724;6.436;2024-02-15T03:56:59;82.13;;;31.53;;
52586;SDS011;38480;52.724;6.436;2024-02-15T03:59:25;78.03;;;30.87;;
52586;SDS011;38480;52.724;6.436;2024-02-15T04:01:55;71.63;;;31.10;;
52586;SDS011;38480;52.724;6.436;2024-02-15T04:04:22;72.80;;;30.40;;
52586;SDS011;38480;52.724;6.436;2024-02-15T04:06:48;85.37;;;33.07;;
52586;SDS011;38480;52.724;6.436;2024-02-15T04:09:15;77.00;;;32.20;;
52586;SDS011;38480;52.724;6.436;2024-02-15T04:11:42;72.30;;;30.23;;
52586;SDS011;38480;52.724;6.436;2024-02-15T04:14:17;99.00;;;34.67;;
52586;SDS011;38480;52.724;6.436;2024-02-15T04:16:44;75.80;;;33.70;;
52586;SDS011;38480;52.724;6.436;2024-02-15T04:19:10;79.00;;;35.27;;
52586;SDS011;38480;52.724;6.436;2024-02-15T04:21:36;78.33;;;35.97;;
52586;SDS011;38480;52.724;6.436;2024-02-15T04:24:03;102.67;;;38.23;;
52586;SDS011;38480;52.724;6.436;2024-02-15T04:26:30;82.23;;;35.83;;
52586;SDS011;38480;52.724;6.436;2024-02-15T04:28:57;92.37;;;36.57;;
52586;SDS011;38480;52.724;6.436;2024-02-15T04:31:23;95.70;;;38.33;;
52586;SDS011;38480;52.724;6.436;2024-02-15T04:33:54;89.80;;;38.77;;
52586;SDS011;38480;52.724;6.436;2024-02-15T04:36:21;83.77;;;39.60;;
52586;SDS011;38480;52.724;6.436;2024-02-15T04:38:51;97.77;;;38.90;;
52586;SDS011;38480;52.724;6.436;2024-02-15T04:41:18;81.83;;;37.93;;
52586;SDS011;38480;52.724;6.436;2024-02-15T04:43:48;93.03;;;39.97;;
52586;SDS011;38480;52.724;6.436;2024-02-15T04:46:14;95.77;;;40.37;;
52586;SDS011;38480;52.724;6.436;2024-02-15T04:48:40;96.03;;;41.23;;
52586;SDS011;38480;52.724;6.436;2024-02-15T04:51:09;92.33;;;41.37;;
52586;SDS011;38480;52.724;6.436;2024-02-15T04:53:36;106.50;;;43.60;;
52586;SDS011;38480;52.724;6.436;2024-02-15T04:56:04;95.63;;;40.87;;
52586;SDS011;38480;52.724;6.436;2024-02-15T04:58:36;92.05;;;41.00;;
52586;SDS011;38480;52.724;6.436;2024-02-15T05:01:02;116.50;;;45.03;;
52586;SDS011;38480;52.724;6.436;2024-02-15T05:03:30;77.67;;;37.93;;
52586;SDS011;38480;52.724;6.436;2024-02-15T05:05:59;80.40;;;40.17;;
52586;SDS011;38480;52.724;6.436;2024-02-15T05:08:25;92.43;;;39.97;;
52586;SDS011;38480;52.724;6.436;2024-02-15T05:10:53;104.83;;;43.20;;
52586;SDS011;38480;52.724;6.436;2024-02-15T05:13:23;75.67;;;36.87;;
52586;SDS011;38480;52.724;6.436;2024-02-15T05:15:50;101.60;;;40.83;;
52586;SDS011;38480;52.724;6.436;2024-02-15T05:18:16;82.50;;;37.93;;
52586;SDS011;38480;52.724;6.436;2024-02-15T05:20:43;105.20;;;42.57;;
52586;SDS011;38480;52.724;6.436;2024-02-15T05:23:09;80.00;;;36.07;;
52586;SDS011;38480;52.724;6.436;2024-02-15T05:25:37;95.07;;;39.77;;
52586;SDS011;38480;52.724;6.436;2024-02-15T05:28:03;90.67;;;38.80;;
52586;SDS011;38480;52.724;6.436;2024-02-15T05:30:31;80.50;;;36.23;;
52586;SDS011;38480;52.724;6.436;2024-02-15T05:32:58;73.80;;;36.27;;
52586;SDS011;38480;52.724;6.436;2024-02-15T05:35:25;70.87;;;36.37;;
52586;SDS011;38480;52.724;6.436;2024-02-15T05:37:52;81.67;;;37.03;;
52586;SDS011;38480;52.724;6.436;2024-02-15T05:40:18;72.93;;;35.30;;
52586;SDS011;38480;52.724;6.436;2024-02-15T05:42:44;66.57;;;33.37;;
52586;SDS011;38480;52.724;6.436;2024-02-15T05:47:52;74.50;;;34.03;;
52586;SDS011;38480;52.724;6.436;2024-02-15T05:50:18;71.03;;;33.50;;
52586;SDS011;38480;52.724;6.436;2024-02-15T05:52:48;72.43;;;32.43;;
52586;SDS011;38480;52.724;6.436;2024-02-15T05:55:16;71.27;;;34.20;;
52586;SDS011;38480;52.724;6.436;2024-02-15T05:57:43;63.67;;;31.33;;
52586;SDS011;38480;52.724;6.436;2024-02-15T06:00:10;59.03;;;29.40;;
52586;SDS011;38480;52.724;6.436;2024-02-15T06:02:36;61.43;;;29.43;;
52586;SDS011;38480;52.724;6.436;2024-02-15T06:05:03;61.27;;;28.97;;
52586;SDS011;38480;52.724;6.436;2024-02-15T06:07:32;58.60;;;27.90;;
52586;SDS011;38480;52.724;6.436;2024-02-15T06:09:59;64.17;;;29.43;;
52586;SDS011;38480;52.724;6.436;2024-02-15T06:12:28;69.40;;;29.73;;
52586;SDS011;38480;52.724;6.436;2024-02-15T06:14:54;61.80;;;29.03;;
52586;SDS011;38480;52.724;6.436;2024-02-15T06:17:20;62.03;;;29.07;;
52586;SDS011;38480;52.724;6.436;2024-02-15T06:19:46;56.47;;;27.20;;
52586;SDS011;38480;52.724;6.436;2024-02-15T06:22:12;59.03;;;28.27;;
52586;SDS011;38480;52.724;6.436;2024-02-15T06:24:39;55.23;;;26.53;;
52586;SDS011;38480;52.724;6.436;2024-02-15T06:27:06;52.47;;;26.10;;
52586;SDS011;38480;52.724;6.436;2024-02-15T06:29:34;47.77;;;25.63;;
52586;SDS011;38480;52.724;6.436;2024-02-15T06:32:19;65.43;;;27.00;;
52586;SDS011;38480;52.724;6.436;2024-02-15T06:35:04;52.40;;;25.20;;
52586;SDS011;38480;52.724;6.436;2024-02-15T06:37:49;51.40;;;25.73;;
52586;SDS011;38480;52.724;6.436;2024-02-15T06:40:34;49.07;;;26.50;;
52586;SDS011;38480;52.724;6.436;2024-02-15T06:43:01;50.50;;;25.60;;
52586;SDS011;38480;52.724;6.436;2024-02-15T06:45:28;68.17;;;28.80;;
52586;SDS011;38480;52.724;6.436;2024-02-15T06:47:57;53.77;;;25.63;;
52586;SDS011;38480;52.724;6.436;2024-02-15T06:50:23;52.07;;;26.13;;
52586;SDS011;38480;52.724;6.436;2024-02-15T06:52:51;56.47;;;27.20;;
52586;SDS011;38480;52.724;6.436;2024-02-15T06:55:18;51.27;;;26.33;;
52586;SDS011;38480;52.724;6.436;2024-02-15T06:57:47;59.63;;;27.03;;
52586;SDS011;38480;52.724;6.436;2024-02-15T07:00:13;56.63;;;27.00;;
52586;SDS011;38480;52.724;6.436;2024-02-15T07:02:40;48.57;;;24.67;;
52586;SDS011;38480;52.724;6.436;2024-02-15T07:05:09;63.60;;;27.57;;
52586;SDS011;38480;52.724;6.436;2024-02-15T07:07:35;50.20;;;27.10;;
52586;SDS011;38480;52.724;6.436;2024-02-15T07:10:01;53.77;;;26.73;;
52586;SDS011;38480;52.724;6.436;2024-02-15T07:12:28;47.13;;;26.13;;
52586;SDS011;38480;52.724;6.436;2024-02-15T07:14:54;49.13;;;26.03;;
52586;SDS011;38480;52.724;6.436;2024-02-15T07:17:20;61.27;;;26.53;;
52586;SDS011;38480;52.724;6.436;2024-02-15T07:19:46;61.13;;;27.57;;
52586;SDS011;38480;52.724;6.436;2024-02-15T07:22:17;51.37;;;27.00;;
52586;SDS011;38480;52.724;6.436;2024-02-15T07:24:43;51.77;;;26.23;;
52586;SDS011;38480;52.724;6.436;2024-02-15T07:27:09;59.17;;;27.07;;
52586;SDS011;38480;52.724;6.436;2024-02-15T07:29:36;49.23;;;25.73;;
52586;SDS011;38480;52.724;6.436;2024-02-15T07:32:03;52.83;;;26.03;;
52586;SDS011;38480;52.724;6.436;2024-02-15T07:34:29;60.40;;;28.80;;
52586;SDS011;38480;52.724;6.436;2024-02-15T07:36:56;55.83;;;26.03;;
52586;SDS011;38480;52.724;6.436;2024-02-15T07:39:25;52.27;;;25.77;;
52586;SDS011;38480;52.724;6.436;2024-02-15T07:41:56;48.80;;;26.60;;
52586;SDS011;38480;52.724;6.436;2024-02-15T07:44:25;49.37;;;24.73;;
52586;SDS011;38480;52.724;6.436;2024-02-15T07:46:55;47.93;;;23.97;;
52586;SDS011;38480;52.724;6.436;2024-02-15T07:49:21;46.27;;;23.87;;
52586;SDS011;38480;52.724;6.436;2024-02-15T07:51:47;47.27;;;24.50;;
52586;SDS011;38480;52.724;6.436;2024-02-15T07:54:18;50.57;;;24.40;;
52586;SDS011;38480;52.724;6.436;2024-02-15T07:56:46;52.03;;;24.77;;
52586;SDS011;38480;52.724;6.436;2024-02-15T07:59:13;43.47;;;23.10;;
52586;SDS011;38480;52.724;6.436;2024-02-15T08:01:41;43.20;;;23.63;;
52586;SDS011;38480;52.724;6.436;2024-02-15T08:04:08;36.17;;;21.37;;
52586;SDS011;38480;52.724;6.436;2024-02-15T08:06:34;48.60;;;24.43;;
52586;SDS011;38480;52.724;6.436;2024-02-15T08:09:02;46.27;;;23.70;;
52586;SDS011;38480;52.724;6.436;2024-02-15T08:11:30;48.10;;;23.70;;
52586;SDS011;38480;52.724;6.436;2024-02-15T08:13:56;51.70;;;23.37;;
52586;SDS011;38480;52.724;6.436;2024-02-15T08:16:24;42.83;;;21.83;;
52586;SDS011;38480;52.724;6.436;2024-02-15T08:18:54;47.50;;;22.93;;
52586;SDS011;38480;52.724;6.436;2024-02-15T08:21:27;42.20;;;22.43;;
52586;SDS011;38480;52.724;6.436;2024-02-15T08:23:54;38.00;;;22.20;;
52586;SDS011;38480;52.724;6.436;2024-02-15T08:26:20;38.00;;;21.40;;
52586;SDS011;38480;52.724;6.436;2024-02-15T08:28:46;41.73;;;22.20;;
52586;SDS011;38480;52.724;6.436;2024-02-15T08:31:12;43.93;;;24.00;;
52586;SDS011;38480;52.724;6.436;2024-02-15T08:33:40;45.27;;;23.60;;
52586;SDS011;38480;52.724;6.436;2024-02-15T08:36:09;60.57;;;24.13;;
52586;SDS011;38480;52.724;6.436;2024-02-15T08:38:39;42.60;;;21.87;;
52586;SDS011;38480;52.724;6.436;2024-02-15T08:41:06;62.70;;;25.10;;
52586;SDS011;38480;52.724;6.436;2024-02-15T08:43:36;40.33;;;21.83;;
52586;SDS011;38480;52.724;6.436;2024-02-15T08:46:05;50.03;;;25.30;;
52586;SDS011;38480;52.724;6.436;2024-02-15T08:48:31;42.40;;;23.30;;
52586;SDS011;38480;52.724;6.436;2024-02-15T08:51:00;43.80;;;22.77;;
52586;SDS011;38480;52.724;6.436;2024-02-15T08:53:26;44.60;;;23.43;;
52586;SDS011;38480;52.724;6.436;2024-02-15T08:55:54;40.43;;;21.67;;
52586;SDS011;38480;52.724;6.436;2024-02-15T08:58:20;45.50;;;22.50;;
52586;SDS011;38480;52.724;6.436;2024-02-15T09:00:46;37.77;;;22.33;;
52586;SDS011;38480;52.724;6.436;2024-02-15T09:03:12;47.17;;;22.40;;
52586;SDS011;38480;52.724;6.436;2024-02-15T09:05:39;38.33;;;22.83;;
52586;SDS011;38480;52.724;6.436;2024-02-15T09:08:08;37.13;;;21.20;;
52586;SDS011;38480;52.724;6.436;2024-02-15T09:10:34;42.13;;;22.40;;
52586;SDS011;38480;52.724;6.436;2024-02-15T09:13:01;53.27;;;24.77;;
52586;SDS011;38480;52.724;6.436;2024-02-15T09:15:27;40.40;;;21.43;;
52586;SDS011;38480;52.724;6.436;2024-02-15T09:17:55;39.33;;;22.10;;
52586;SDS011;38480;52.724;6.436;2024-02-15T09:20:23;37.13;;;21.83;;
52586;SDS011;38480;52.724;6.436;2024-02-15T09:22:53;45.90;;;22.63;;
52586;SDS011;38480;52.724;6.436;2024-02-15T09:25:19;41.20;;;20.67;;
52586;SDS011;38480;52.724;6.436;2024-02-15T09:27:45;31.63;;;18.30;;
52586;SDS011;38480;52.724;6.436;2024-02-15T09:30:12;42.27;;;20.70;;
52586;SDS011;38480;52.724;6.436;2024-02-15T09:32:38;34.67;;;18.63;;
52586;SDS011;38480;52.724;6.436;2024-02-15T09:35:06;31.57;;;17.10;;
52586;SDS011;38480;52.724;6.436;2024-02-15T09:37:46;31.67;;;16.97;;
52586;SDS011;38480;52.724;6.436;2024-02-15T09:40:16;24.10;;;15.23;;
52586;SDS011;38480;52.724;6.436;2024-02-15T09:42:43;24.97;;;15.47;;
52586;SDS011;38480;52.724;6.436;2024-02-15T09:45:11;31.30;;;16.80;;
52586;SDS011;38480;52.724;6.436;2024-02-15T09:47:41;33.07;;;18.10;;
52586;SDS011;38480;52.724;6.436;2024-02-15T09:52:33;25.73;;;14.30;;
52586;SDS011;38480;52.724;6.436;2024-02-15T09:55:04;25.57;;;15.57;;
52586;SDS011;38480;52.724;6.436;2024-02-15T09:57:30;21.43;;;13.23;;
52586;SDS011;38480;52.724;6.436;2024-02-15T10:00:00;21.00;;;13.40;;
52586;SDS011;38480;52.724;6.436;2024-02-15T10:02:28;21.90;;;13.27;;
52586;SDS011;38480;52.724;6.436;2024-02-15T10:04:55;20.73;;;13.07;;
52586;SDS011;38480;52.724;6.436;2024-02-15T10:07:23;20.83;;;13.90;;
52586;SDS011;38480;52.724;6.436;2024-02-15T10:09:49;24.27;;;14.17;;
52586;SDS011;38480;52.724;6.436;2024-02-15T10:12:17;22.67;;;12.70;;
52586;SDS011;38480;52.724;6.436;2024-02-15T10:14:50;19.37;;;12.53;;
52586;SDS011;38480;52.724;6.436;2024-02-15T10:17:17;18.08;;;12.38;;
52586;SDS011;38480;52.724;6.436;2024-02-15T10:19:44;16.33;;;10.60;;
52586;SDS011;38480;52.724;6.436;2024-02-15T10:22:12;19.97;;;12.37;;
52586;SDS011;38480;52.724;6.436;2024-02-15T10:24:39;18.33;;;11.30;;
52586;SDS011;38480;52.724;6.436;2024-02-15T10:27:06;22.57;;;12.77;;
52586;SDS011;38480;52.724;6.436;2024-02-15T10:29:32;16.03;;;10.60;;
52586;SDS011;38480;52.724;6.436;2024-02-15T10:31:59;20.80;;;12.13;;
52586;SDS011;38480;52.724;6.436;2024-02-15T10:34:26;19.07;;;11.57;;
52586;SDS011;38480;52.724;6.436;2024-02-15T10:36:55;17.10;;;9.93;;
52586;SDS011;38480;52.724;6.436;2024-02-15T10:39:36;15.80;;;10.60;;
52586;SDS011;38480;52.724;6.436;2024-02-15T10:42:02;13.63;;;10.63;;
52586;SDS011;38480;52.724;6.436;2024-02-15T10:44:28;18.57;;;10.03;;
52586;SDS011;38480;52.724;6.436;2024-02-15T10:46:54;16.10;;;11.60;;
52586;SDS011;38480;52.724;6.436;2024-02-15T10:49:22;14.77;;;10.30;;
52586;SDS011;38480;52.724;6.436;2024-02-15T10:51:50;15.70;;;10.67;;
52586;SDS011;38480;52.724;6.436;2024-02-15T10:54:24;26.57;;;13.27;;
52586;SDS011;38480;52.724;6.436;2024-02-15T10:56:53;17.63;;;9.93;;
52586;SDS011;38480;52.724;6.436;2024-02-15T10:59:21;23.13;;;13.40;;
52586;SDS011;38480;52.724;6.436;2024-02-15T11:01:52;16.03;;;10.67;;
52586;SDS011;38480;52.724;6.436;2024-02-15T11:04:20;16.60;;;10.90;;
52586;SDS011;38480;52.724;6.436;2024-02-15T11:06:47;23.33;;;12.93;;
52586;SDS011;38480;52.724;6.436;2024-02-15T11:09:15;21.57;;;11.27;;
52586;SDS011;38480;52.724;6.436;2024-02-15T11:11:41;18.10;;;11.23;;
52586;SDS011;38480;52.724;6.436;2024-02-15T11:14:42;26.73;;;14.43;;
52586;SDS011;38480;52.724;6.436;2024-02-15T11:17:01;20.70;;;12.07;;
52586;SDS011;38480;52.724;6.436;2024-02-15T11:22:07;26.13;;;13.83;;
52586;SDS011;38480;52.724;6.436;2024-02-15T11:24:35;17.87;;;11.43;;
52586;SDS011;38480;52.724;6.436;2024-02-15T11:27:02;18.17;;;11.20;;
52586;SDS011;38480;52.724;6.436;2024-02-15T11:35:05;19.83;;;12.23;;
52586;SDS011;38480;52.724;6.436;2024-02-15T11:37:50;15.80;;;10.70;;
52586;SDS011;38480;52.724;6.436;2024-02-15T11:40:24;18.77;;;11.37;;
52586;SDS011;38480;52.724;6.436;2024-02-15T11:43:01;16.33;;;11.27;;
52586;SDS011;38480;52.724;6.436;2024-02-15T11:45:29;28.53;;;14.53;;
52586;SDS011;38480;52.724;6.436;2024-02-15T11:47:58;23.73;;;13.47;;
52586;SDS011;38480;52.724;6.436;2024-02-15T11:50:26;24.97;;;14.07;;
52586;SDS011;38480;52.724;6.436;2024-02-15T11:53:01;24.70;;;14.60;;
52586;SDS011;38480;52.724;6.436;2024-02-15T11:55:30;24.20;;;14.10;;
52586;SDS011;38480;52.724;6.436;2024-02-15T11:57:58;21.03;;;12.37;;
52586;SDS011;38480;52.724;6.436;2024-02-15T12:00:43;22.13;;;13.00;;
52586;SDS011;38480;52.724;6.436;2024-02-15T12:03:28;23.80;;;12.33;;
52586;SDS011;38480;52.724;6.436;2024-02-15T12:06:16;24.70;;;14.73;;
52586;SDS011;38480;52.724;6.436;2024-02-15T12:09:03;27.00;;;14.90;;
52586;SDS011;38480;52.724;6.436;2024-02-15T12:11:53;22.27;;;14.37;;
52586;SDS011;38480;52.724;6.436;2024-02-15T12:14:41;17.52;;;12.43;;
52586;SDS011;38480;52.724;6.436;2024-02-15T12:17:26;19.57;;;13.77;;
52586;SDS011;38480;52.724;6.436;2024-02-15T12:20:11;23.13;;;14.80;;
52586;SDS011;38480;52.724;6.436;2024-02-15T12:22:39;25.47;;;16.17;;
52586;SDS011;38480;52.724;6.436;2024-02-15T12:25:06;36.87;;;15.13;;
52586;SDS011;38480;52.724;6.436;2024-02-15T12:27:38;24.80;;;15.20;;
52586;SDS011;38480;52.724;6.436;2024-02-15T12:30:04;22.60;;;14.07;;
52586;SDS011;38480;52.724;6.436;2024-02-15T12:32:32;21.13;;;14.43;;
52586;SDS011;38480;52.724;6.436;2024-02-15T12:35:13;26.47;;;14.93;;
52586;SDS011;38480;52.724;6.436;2024-02-15T12:37:47;25.97;;;16.60;;
52586;SDS011;38480;52.724;6.436;2024-02-15T12:40:17;19.23;;;13.20;;
52586;SDS011;38480;52.724;6.436;2024-02-15T12:42:44;23.97;;;15.40;;
52586;SDS011;38480;52.724;6.436;2024-02-15T12:45:15;23.47;;;14.17;;
52586;SDS011;38480;52.724;6.436;2024-02-15T12:47:44;27.23;;;15.03;;
52586;SDS011;38480;52.724;6.436;2024-02-15T12:50:14;24.37;;;13.93;;
52586;SDS011;38480;52.724;6.436;2024-02-15T12:52:40;28.77;;;15.17;;
52586;SDS011;38480;52.724;6.436;2024-02-15T12:55:18;23.47;;;14.03;;
52586;SDS011;38480;52.724;6.436;2024-02-15T12:57:46;33.30;;;17.30;;
52586;SDS011;38480;52.724;6.436;2024-02-15T13:00:17;29.10;;;16.77;;
52586;SDS011;38480;52.724;6.436;2024-02-15T13:02:46;31.63;;;16.03;;
52586;SDS011;38480;52.724;6.436;2024-02-15T13:05:14;32.73;;;16.27;;
52586;SDS011;38480;52.724;6.436;2024-02-15T13:07:40;27.13;;;15.27;;
52586;SDS011;38480;52.724;6.436;2024-02-15T13:10:06;28.97;;;15.80;;
52586;SDS011;38480;52.724;6.436;2024-02-15T13:12:36;34.03;;;17.40;;
52586;SDS011;38480;52.724;6.436;2024-02-15T13:15:05;35.97;;;19.10;;
52586;SDS011;38480;52.724;6.436;2024-02-15T13:17:36;29.13;;;15.87;;
52586;SDS011;38480;52.724;6.436;2024-02-15T13:20:02;29.53;;;15.87;;
52586;SDS011;38480;52.724;6.436;2024-02-15T13:22:38;30.73;;;18.07;;
52586;SDS011;38480;52.724;6.436;2024-02-15T13:25:04;32.97;;;17.07;;
52586;SDS011;38480;52.724;6.436;2024-02-15T13:27:32;36.63;;;19.17;;
52586;SDS011;38480;52.724;6.436;2024-02-15T13:29:58;30.17;;;17.97;;
52586;SDS011;38480;52.724;6.436;2024-02-15T13:32:24;35.30;;;17.60;;
52586;SDS011;38480;52.724;6.436;2024-02-15T13:34:50;32.63;;;16.47;;
52586;SDS011;38480;52.724;6.436;2024-02-15T13:37:21;29.80;;;17.70;;
52586;SDS011;38480;52.724;6.436;2024-02-15T13:39:50;33.33;;;17.93;;
52586;SDS011;38480;52.724;6.436;2024-02-15T13:42:16;29.00;;;16.87;;
52586;SDS011;38480;52.724;6.436;2024-02-15T13:44:42;33.87;;;17.83;;
52586;SDS011;38480;52.724;6.436;2024-02-15T13:47:09;30.60;;;19.00;;
52586;SDS011;38480;52.724;6.436;2024-02-15T13:49:36;35.03;;;19.27;;
52586;SDS011;38480;52.724;6.436;2024-02-15T13:52:03;32.23;;;17.83;;
52586;SDS011;38480;52.724;6.436;2024-02-15T13:54:31;31.77;;;18.37;;
52586;SDS011;38480;52.724;6.436;2024-02-15T13:56:57;31.60;;;19.90;;
52586;SDS011;38480;52.724;6.436;2024-02-15T13:59:28;37.50;;;19.70;;
52586;SDS011;38480;52.724;6.436;2024-02-15T14:01:54;39.23;;;19.37;;
52586;SDS011;38480;52.724;6.436;2024-02-15T14:04:20;41.60;;;20.83;;
52586;SDS011;38480;52.724;6.436;2024-02-15T14:06:47;34.53;;;20.00;;
52586;SDS011;38480;52.724;6.436;2024-02-15T14:09:13;37.97;;;19.80;;
52586;SDS011;38480;52.724;6.436;2024-02-15T14:11:42;36.50;;;21.97;;
52586;SDS011;38480;52.724;6.436;2024-02-15T14:14:08;29.90;;;19.33;;
52586;SDS011;38480;52.724;6.436;2024-02-15T14:16:34;39.17;;;20.60;;
52586;SDS011;38480;52.724;6.436;2024-02-15T14:19:00;29.67;;;20.10;;
52586;SDS011;38480;52.724;6.436;2024-02-15T14:21:28;36.07;;;21.60;;
52586;SDS011;38480;52.724;6.436;2024-02-15T14:23:57;35.40;;;20.23;;
52586;SDS011;38480;52.724;6.436;2024-02-15T14:26:23;38.43;;;21.93;;
52586;SDS011;38480;52.724;6.436;2024-02-15T14:28:52;45.97;;;22.80;;
52586;SDS011;38480;52.724;6.436;2024-02-15T14:31:18;37.57;;;22.13;;
52586;SDS011;38480;52.724;6.436;2024-02-15T14:34:03;36.83;;;21.87;;
52586;SDS011;38480;52.724;6.436;2024-02-15T14:36:29;36.63;;;19.90;;
52586;SDS011;38480;52.724;6.436;2024-02-15T14:38:55;33.93;;;20.07;;
52586;SDS011;38480;52.724;6.436;2024-02-15T14:41:21;34.20;;;18.13;;